Decoded Metar for UKON (MYKOLAIV in UKRAINE) (IATA:NLV) | Meteo·Mobile Aviation Weather
aviador You're here:

UKON Decoded Metar

MYKOLAIV in UKRAINE
Report Time2019-10-21 07:00:00
UTC Time2019-10-21 07:29:18
Flight Rules ifr IFR
WindVRB at 2 kt
Visibility3000 m
Phenomena:Mist
Clouds:Overcast 006 Hf
Ceiling600 ft
Temp10°C (ISA -5)
Dew Point10°C (100% RH)
AAT9.3°C
QNH1026 hPa
Density Alt-643 ft
Elevation184 ft
Report Wrong Elevation
Raw Report
UKON 210700Z VRB01MPS 3000 BR OVC006 10/10 Q1026 NOSIG=

Extra information for UKON:More info

Metar Taf Metar & Taf Last 4 Metars F.Rules Stats Wind Profile Meteogram Temp Stats Airport Information Weather charts Add Link Nearby VenuesMetar ALERT Operation Metar Decoded Social comments